Time;durP1;ratioP1;P1;durP2;ratioP2;P2;SDS_P1;SDS_P2;PMS_P1;PMS_P2;Temp;Humidity;BMP_temperature;BMP_pressure;BME280_temperature;BME280_humidity;BME280_pressure;Samples;Min_cycle;Max_cycle;Signal;HPM_P1;HPM_P2
2022/08/01 04:22:49;;;;;;;6.70;4.20;;;;;;;19.17;71.36;100289.31;5109526;27;20357;-67
2022/08/01 04:25:21;;;;;;;6.05;3.92;;;;;;;19.19;71.38;100298.00;5108136;28;20476;-67
2022/08/01 04:27:49;;;;;;;7.03;3.00;;;;;;;19.19;71.81;100302.56;5109448;28;20048;-67
2022/08/01 04:30:17;;;;;;;6.68;3.55;;;;;;;19.22;71.57;100310.19;5107839;28;20048;-67
2022/08/01 04:32:46;;;;;;;8.80;3.95;;;;;;;19.24;71.97;100305.41;5109314;28;20484;-67
2022/08/01 04:35:16;;;;;;;5.20;3.28;;;;;;;19.24;71.53;100308.09;5117472;22;20036;-70
2022/08/01 04:37:44;;;;;;;5.43;3.45;;;;;;;19.28;71.67;100305.75;5088704;28;20039;-49
2022/08/01 04:40:11;;;;;;;7.18;3.40;;;;;;;19.33;71.36;100308.59;5088134;28;20035;-52
2022/08/01 04:42:36;;;;;;;5.38;3.63;;;;;;;19.38;70.97;100306.88;5088344;28;20032;-51
2022/08/01 04:45:02;;;;;;;4.32;3.00;;;;;;;19.40;70.96;100298.53;5093404;28;20538;-53
2022/08/01 04:47:30;;;;;;;8.98;2.90;;;;;;;19.47;70.87;100307.34;5108676;28;20075;-50
2022/08/01 04:49:56;;;;;;;;;;;;;;;19.49;70.78;100310.63;5108802;28;20123;-52
2022/08/01 04:52:22;;;;;;;4.78;3.35;;;;;;;19.52;70.76;100311.03;5108509;28;19912;-48
2022/08/01 04:54:47;;;;;;;4.53;3.33;;;;;;;19.55;70.82;100312.44;5108337;28;20036;-48
2022/08/01 04:57:13;;;;;;;4.55;3.03;;;;;;;19.57;70.54;100309.53;5108500;28;20044;-51
2022/08/01 04:59:42;;;;;;;4.45;3.53;;;;;;;19.52;70.66;100304.78;5108198;28;20040;-49
2022/08/01 05:02:10;;;;;;;4.18;3.40;;;;;;;19.59;70.88;100312.84;5108360;28;20036;-52
2022/08/01 05:04:35;;;;;;;;;;;;;;;19.64;70.78;100319.19;5108760;28;20040;-51
2022/08/01 05:07:01;;;;;;;4.30;2.80;;;;;;;19.67;70.60;100317.91;5108437;28;20010;-51
2022/08/01 05:09:27;;;;;;;4.88;3.08;;;;;;;19.70;70.59;100312.88;5108148;28;20149;-52
2022/08/01 05:11:53;;;;;;;4.28;3.40;;;;;;;19.72;70.80;100312.63;5108337;28;20388;-56
2022/08/01 05:14:18;;;;;;;3.72;3.17;;;;;;;19.76;70.97;100311.13;5106872;28;20563;-49
2022/08/01 05:16:44;;;;;;;5.45;3.70;;;;;;;19.80;71.06;100312.28;5108376;28;20040;-54
2022/08/01 05:19:10;;;;;;;4.22;3.33;;;;;;;19.85;71.11;100314.31;5107040;28;20042;-51
2022/08/01 05:21:35;;;;;;;4.72;3.53;;;;;;;19.90;70.72;100312.56;5108220;28;20387;-49
2022/08/01 05:24:02;;;;;;;4.50;3.38;;;;;;;19.97;70.58;100318.69;5107008;28;20048;-53
2022/08/01 05:26:27;;;;;;;3.92;3.00;;;;;;;20.02;70.57;100316.09;5107976;28;20134;-50
2022/08/01 05:28:53;;;;;;;4.68;3.30;;;;;;;20.09;70.46;100316.00;5107697;28;20110;-51
2022/08/01 05:31:18;;;;;;;5.95;3.08;;;;;;;20.18;70.52;100313.75;5107759;28;20499;-50
2022/08/01 05:33:43;;;;;;;4.75;3.28;;;;;;;20.23;70.51;100312.00;5095781;28;20035;-49
2022/08/01 05:36:09;;;;;;;5.47;3.80;;;;;;;20.31;70.47;100314.34;5094123;28;20468;-53
2022/08/01 05:38:35;;;;;;;3.92;3.13;;;;;;;20.41;69.68;100310.22;5094115;28;20048;-50
2022/08/01 05:41:00;;;;;;;7.45;3.35;;;;;;;20.52;69.71;100322.94;5093908;28;20028;-52
2022/08/01 05:43:26;;;;;;;5.70;3.42;;;;;;;20.62;69.54;100315.06;5094030;28;20076;-49
2022/08/01 05:45:51;;;;;;;3.80;2.80;;;;;;;20.72;69.20;100317.16;5093995;28;20411;-51
2022/08/01 05:48:16;;;;;;;3.72;3.00;;;;;;;20.78;69.24;100311.59;5094125;28;20051;-51
2022/08/01 05:50:42;;;;;;;4.10;3.25;;;;;;;20.90;69.15;100314.28;5093634;28;20042;-52
2022/08/01 05:53:07;;;;;;;7.40;4.10;;;;;;;20.97;69.09;100319.56;5094006;28;20477;-52
2022/08/01 05:55:34;;;;;;;3.95;2.80;;;;;;;21.08;68.78;100313.31;5093863;28;20040;-50
2022/08/01 05:57:59;;;;;;;4.68;2.80;;;;;;;21.09;69.11;100313.06;5093751;28;20388;-55
2022/08/01 06:00:25;;;;;;;8.02;3.10;;;;;;;21.18;68.59;100318.09;5093516;28;20032;-50
2022/08/01 06:02:50;;;;;;;4.22;2.70;;;;;;;21.24;68.97;100320.66;5093770;28;20043;-50
2022/08/01 06:05:16;;;;;;;6.25;3.55;;;;;;;21.32;68.61;100305.94;5093580;28;20032;-54
2022/08/01 06:07:41;;;;;;;5.70;3.40;;;;;;;21.43;68.50;100315.91;5093635;28;20535;-53
2022/08/01 06:10:08;;;;;;;7.22;3.33;;;;;;;21.54;68.18;100319.63;5093237;28;20412;-53
2022/08/01 06:12:33;;;;;;;3.65;3.05;;;;;;;21.58;67.88;100318.06;5093435;28;20120;-48
2022/08/01 06:14:59;;;;;;;5.38;2.63;;;;;;;21.66;68.37;100325.81;5093436;28;20118;-50
2022/08/01 06:17:24;;;;;;;5.78;3.17;;;;;;;21.75;67.68;100326.22;5093605;28;20139;-51
2022/08/01 06:19:50;;;;;;;4.60;3.00;;;;;;;21.81;67.97;100322.53;5093214;28;20035;-53
2022/08/01 06:22:15;;;;;;;4.50;2.70;;;;;;;21.82;67.62;100321.47;5093472;28;20032;-52
2022/08/01 06:24:41;;;;;;;9.07;3.25;;;;;;;21.85;67.89;100326.41;5092949;28;20055;-56
2022/08/01 06:27:06;;;;;;;6.75;3.22;;;;;;;21.89;68.19;100327.53;5093593;28;20090;-54
2022/08/01 06:29:32;;;;;;;4.32;2.90;;;;;;;22.03;67.46;100330.75;5093035;28;20060;-51
2022/08/01 06:31:58;;;;;;;5.03;2.67;;;;;;;22.13;67.02;100326.34;5093250;28;20040;-52
2022/08/01 06:34:23;;;;;;;3.63;3.10;;;;;;;22.20;66.81;100335.13;5093389;28;20032;-51
2022/08/01 06:36:49;;;;;;;3.97;2.90;;;;;;;22.29;66.34;100335.53;5093050;28;20082;-51
2022/08/01 06:39:14;;;;;;;5.22;3.38;;;;;;;22.39;67.00;100335.69;5091637;28;20070;-48
2022/08/01 06:41:41;;;;;;;4.22;3.10;;;;;;;22.43;67.00;100331.44;5093111;28;20024;-51
2022/08/01 06:44:07;;;;;;;4.50;2.75;;;;;;;22.47;66.67;100329.03;5092451;28;20066;-53
2022/08/01 06:46:34;;;;;;;5.45;3.00;;;;;;;22.55;66.34;100336.72;5092794;28;20086;-52
2022/08/01 06:49:00;;;;;;;3.92;3.10;;;;;;;22.65;65.76;100339.59;5054357;28;20036;-54
2022/08/01 06:51:25;;;;;;;5.55;3.90;;;;;;;22.70;66.67;100341.56;5075907;28;20069;-54
2022/08/01 06:53:51;;;;;;;7.45;4.05;;;;;;;22.71;66.48;100337.78;5092691;28;20028;-53
2022/08/01 06:56:16;;;;;;;6.65;4.10;;;;;;;22.70;65.81;100338.84;5092502;28;20123;-52
2022/08/01 06:58:41;;;;;;;8.80;4.95;;;;;;;22.75;66.31;100347.88;5091648;28;20104;-52
2022/08/01 07:01:09;;;;;;;9.70;5.20;;;;;;;22.79;66.62;100344.66;5091250;28;20111;-52
2022/08/01 07:03:35;;;;;;;8.32;5.90;;;;;;;22.92;66.35;100347.03;5057972;28;20040;-53
2022/08/01 07:06:01;;;;;;;9.80;6.97;;;;;;;23.07;65.56;100343.69;5074485;28;20039;-53
2022/08/01 07:08:26;;;;;;;7.63;6.00;;;;;;;23.19;64.84;100347.09;5074770;28;20111;-53
2022/08/01 07:10:52;;;;;;;8.70;5.72;;;;;;;23.30;64.69;100351.59;5091794;28;20073;-54
2022/08/01 07:13:21;;;;;;;7.05;5.20;;;;;;;23.42;64.81;100354.16;5092691;28;20032;-51
2022/08/01 07:15:47;;;;;;;7.78;4.43;;;;;;;23.49;63.46;100355.59;5092185;28;20044;-52
2022/08/01 07:18:13;;;;;;;7.03;4.50;;;;;;;23.57;63.41;100354.31;5092222;28;20054;-50
2022/08/01 07:20:38;;;;;;;6.32;4.30;;;;;;;23.58;63.65;100358.66;5090664;28;20035;-50
2022/08/01 07:23:04;;;;;;;6.25;3.83;;;;;;;23.59;63.99;100351.34;5091562;28;20496;-55
2022/08/01 07:25:29;;;;;;;4.22;3.72;;;;;;;23.64;63.10;100351.41;5091889;28;20043;-53
2022/08/01 07:27:55;;;;;;;4.90;3.22;;;;;;;23.60;63.16;100339.38;5092751;28;20059;-51
2022/08/01 07:30:20;;;;;;;3.55;3.15;;;;;;;23.70;63.13;100347.69;5092053;28;20514;-53
2022/08/01 07:32:46;;;;;;;6.38;3.65;;;;;;;23.80;62.55;100351.31;5091921;28;20046;-53
2022/08/01 07:35:11;;;;;;;5.30;3.70;;;;;;;23.87;62.54;100348.41;5091778;28;20144;-55
2022/08/01 07:37:37;;;;;;;4.72;3.80;;;;;;;24.02;62.80;100345.78;5092034;28;20105;-51
2022/08/01 07:40:04;;;;;;;7.72;3.42;;;;;;;24.09;62.35;100338.22;5091476;28;20126;-63
2022/08/01 07:42:30;;;;;;;;;;;;;;;24.16;61.87;100334.47;5092462;28;20032;-63
2022/08/01 07:44:55;;;;;;;4.97;2.95;;;;;;;24.22;62.00;100327.97;5091690;28;19922;-62
2022/08/01 07:47:25;;;;;;;4.82;3.13;;;;;;;24.30;62.10;100330.22;5091728;28;20063;-64
2022/08/01 07:49:51;;;;;;;3.95;2.65;;;;;;;24.36;61.31;100331.91;5091392;28;20040;-63
2022/08/01 07:52:16;;;;;;;7.90;2.40;;;;;;;24.35;61.52;100338.44;5091559;28;20489;-61
2022/08/01 07:54:42;;;;;;;4.18;2.42;;;;;;;24.41;60.03;100344.75;5091379;28;20048;-63
2022/08/01 07:57:07;;;;;;;4.38;2.30;;;;;;;24.43;60.72;100335.22;5091251;28;20040;-61
2022/08/01 07:59:33;;;;;;;3.67;2.35;;;;;;;24.56;60.38;100342.13;5091342;28;20390;-63
2022/08/01 08:01:59;;;;;;;3.28;2.25;;;;;;;24.53;59.59;100335.31;5091588;28;20125;-63
2022/08/01 08:04:26;;;;;;;4.45;2.33;;;;;;;24.60;60.06;100333.16;5091491;28;20440;-64
2022/08/01 08:06:53;;;;;;;4.80;3.10;;;;;;;24.60;59.62;100332.34;5091400;28;20047;-63
2022/08/01 08:09:18;;;;;;;2.88;2.05;;;;;;;24.62;58.86;100328.25;5091031;28;20320;-64
2022/08/01 08:11:44;;;;;;;5.72;2.20;;;;;;;24.71;59.05;100331.28;5091373;28;20037;-63
2022/08/01 08:14:10;;;;;;;4.30;1.88;;;;;;;24.69;58.16;100324.50;5091482;28;20046;-62
2022/08/01 08:16:36;;;;;;;3.70;2.30;;;;;;;24.80;58.17;100320.75;5091224;28;20247;-63
2022/08/01 08:19:01;;;;;;;3.00;1.88;;;;;;;24.98;58.67;100319.47;5091198;28;20044;-64
2022/08/01 08:21:27;;;;;;;3.40;1.98;;;;;;;25.10;59.37;100320.91;5091326;28;20077;-62
2022/08/01 08:26:37;;;;;;;5.85;2.00;;;;;;;25.36;57.41;100307.31;5091332;28;20139;-63
2022/08/01 08:29:03;;;;;;;2.70;1.80;;;;;;;25.52;58.14;100303.53;5091290;28;20536;-62
2022/08/01 08:31:28;;;;;;;3.47;2.00;;;;;;;25.75;57.06;100315.03;5089990;28;20063;-63
2022/08/01 08:33:54;;;;;;;2.15;1.63;;;;;;;25.90;56.41;100317.78;5091403;28;20036;-63
2022/08/01 08:36:19;;;;;;;6.78;2.15;;;;;;;26.02;56.04;100318.34;5091118;28;20062;-64
2022/08/01 08:38:45;;;;;;;2.70;1.70;;;;;;;26.22;55.40;100314.75;5091310;28;20091;-64
2022/08/01 08:41:10;;;;;;;2.70;1.67;;;;;;;26.35;54.38;100318.84;5090240;28;20652;-63
2022/08/01 08:43:36;;;;;;;2.63;1.63;;;;;;;26.37;54.02;100322.91;5091209;28;20392;-63
2022/08/01 08:46:02;;;;;;;3.13;1.80;;;;;;;26.45;53.96;100310.66;5091803;28;20032;-63
2022/08/01 08:48:29;;;;;;;2.17;1.55;;;;;;;26.62;54.58;100313.88;5091281;28;20028;-61
2022/08/01 08:50:57;;;;;;;3.22;1.77;;;;;;;26.68;53.40;100315.50;5090970;28;20131;-63
2022/08/01 08:53:23;;;;;;;2.85;2.10;;;;;;;26.82;53.19;100306.72;5091304;28;20103;-63
2022/08/01 08:55:50;;;;;;;4.10;1.88;;;;;;;26.84;52.77;100309.97;5091211;28;20048;-62
2022/08/01 08:58:17;;;;;;;3.10;2.10;;;;;;;26.79;52.61;100314.34;5089819;28;20066;-62
2022/08/01 09:00:43;;;;;;;2.38;1.63;;;;;;;27.02;52.57;100310.16;5090761;28;20093;-63
2022/08/01 09:03:09;;;;;;;2.63;1.70;;;;;;;27.03;51.93;100317.25;5091065;28;20493;-62
2022/08/01 09:05:34;;;;;;;2.42;1.55;;;;;;;27.17;52.04;100306.56;5089562;28;20051;-62
2022/08/01 09:07:59;;;;;;;2.70;2.03;;;;;;;27.21;51.76;100313.13;5092126;28;20141;-62
2022/08/01 09:10:25;;;;;;;2.97;2.05;;;;;;;27.41;51.79;100314.09;5094530;28;20488;-63
2022/08/01 09:13:10;;;;;;;2.42;2.00;;;;;;;27.47;51.25;100307.50;5094848;28;20040;-63
2022/08/01 09:15:47;;;;;;;2.55;1.58;;;;;;;27.65;50.71;100317.75;5094634;28;20088;-60
2022/08/01 09:18:35;;;;;;;3.10;1.70;;;;;;;27.65;50.23;100315.03;5095052;28;20493;-63
2022/08/01 09:21:09;;;;;;;2.38;1.80;;;;;;;27.57;49.05;100308.22;5094505;28;20420;-63
2022/08/01 09:23:52;;;;;;;3.28;1.88;;;;;;;27.93;49.23;100318.94;5093261;28;20043;-64
2022/08/01 09:26:21;;;;;;;1.60;1.48;;;;;;;28.03;48.34;100318.00;5094478;28;20044;-61
2022/08/01 09:28:47;;;;;;;2.97;1.50;;;;;;;28.11;48.02;100314.69;5094659;28;20493;-64
2022/08/01 09:31:16;;;;;;;2.00;1.40;;;;;;;28.09;47.86;100311.38;5094345;28;20047;-64
2022/08/01 09:33:53;;;;;;;1.85;1.50;;;;;;;28.05;48.46;100318.56;5094479;28;20073;-64
2022/08/01 09:36:21;;;;;;;2.33;1.40;;;;;;;27.94;47.93;100317.00;5094111;28;20032;-63
2022/08/01 09:38:47;;;;;;;2.00;1.67;;;;;;;27.68;48.82;100317.22;5094033;28;20047;-64
2022/08/01 09:41:13;;;;;;;2.38;2.00;;;;;;;27.61;48.61;100313.94;5092917;28;20063;-61
2022/08/01 09:43:39;;;;;;;4.07;1.75;;;;;;;27.82;48.47;100312.72;5094190;28;20040;-62
2022/08/01 09:46:11;;;;;;;2.58;1.83;;;;;;;27.66;48.89;100313.09;5094233;28;20028;-63
2022/08/01 09:48:39;;;;;;;2.35;1.90;;;;;;;28.07;48.84;100321.81;5094519;28;20036;-64
2022/08/01 09:51:05;;;;;;;2.10;1.90;;;;;;;27.91;47.66;100312.09;5094059;28;20063;-62
2022/08/01 09:53:46;;;;;;;2.53;1.58;;;;;;;27.88;49.13;100315.41;5093970;28;20063;-62
2022/08/01 09:56:12;;;;;;;1.88;1.45;;;;;;;27.94;47.34;100311.53;5093908;28;20062;-63
2022/08/01 09:58:55;;;;;;;1.90;1.75;;;;;;;28.44;46.30;100318.50;5093967;28;20027;-62
2022/08/01 10:01:22;;;;;;;2.80;1.80;;;;;;;28.89;45.71;100311.66;5093762;28;20032;-62
2022/08/01 10:04:04;;;;;;;2.80;1.65;;;;;;;29.01;44.95;100315.91;5093784;28;20020;-62
2022/08/01 10:06:30;;;;;;;4.88;2.40;;;;;;;28.91;45.83;100319.59;5093880;28;20043;-63
2022/08/01 10:08:55;;;;;;;5.65;2.55;;;;;;;28.59;45.76;100304.59;5093945;28;20047;-63
2022/08/01 10:11:21;;;;;;;3.78;2.13;;;;;;;28.58;46.35;100311.19;5093440;28;20040;-64
2022/08/01 10:13:48;;;;;;;2.90;2.30;;;;;;;28.58;46.79;100315.88;5093780;28;20031;-62
2022/08/01 10:16:15;;;;;;;2.70;2.38;;;;;;;28.46;48.05;100302.56;5093670;28;20408;-63
2022/08/01 10:18:41;;;;;;;2.85;2.40;;;;;;;28.50;46.23;100308.28;5093490;28;20046;-63
2022/08/01 10:21:07;;;;;;;3.17;1.90;;;;;;;28.77;46.02;100307.72;5093213;28;20024;-63
2022/08/01 10:23:37;;;;;;;7.00;4.78;;;;;;;29.50;44.98;100298.22;5093420;28;20392;-63
2022/08/01 10:26:05;;;;;;;2.83;2.20;;;;;;;29.86;43.55;100293.00;5093355;28;20584;-62
2022/08/01 10:28:31;;;;;;;3.08;2.17;;;;;;;30.36;43.63;100299.53;5093313;28;20038;-63
2022/08/01 10:30:57;;;;;;;4.45;2.95;;;;;;;30.62;42.33;100297.13;5092879;28;20540;-64
2022/08/01 10:33:23;;;;;;;3.22;2.00;;;;;;;30.80;41.27;100282.47;5093574;28;20506;-63
2022/08/01 10:35:51;;;;;;;2.67;2.17;;;;;;;30.89;40.60;100298.25;5099529;22;20072;-56
2022/08/01 10:38:17;;;;;;;1.65;1.45;;;;;;;31.42;40.35;100281.13;5073147;28;20036;-60
2022/08/01 10:40:43;;;;;;;3.78;1.90;;;;;;;32.02;39.39;100284.34;5072951;28;20039;-60
2022/08/01 10:43:14;;;;;;;2.53;1.85;;;;;;;32.20;39.83;100282.47;5071977;28;20042;-58
2022/08/01 10:45:42;;;;;;;4.38;1.70;;;;;;;32.35;37.90;100284.06;5072961;28;20039;-59
2022/08/01 10:48:56;;;;;;;2.45;1.70;;;;;;;32.02;39.81;100278.03;5073041;28;20477;-64
2022/08/01 10:51:23;;;;;;;2.88;1.60;;;;;;;31.24;40.73;100280.19;5063513;28;20512;-64
2022/08/01 10:53:53;;;;;;;;;;;;;;;31.07;40.62;100280.81;5072007;28;20127;-64
2022/08/01 10:56:20;;;;;;;2.95;2.15;;;;;;;30.89;40.35;100276.25;5072739;28;19916;-65
2022/08/01 10:58:47;;;;;;;2.85;1.90;;;;;;;31.04;40.09;100271.25;5072727;28;20043;-63
2022/08/01 11:01:12;;;;;;;2.38;1.80;;;;;;;31.33;40.27;100272.81;5072718;28;20105;-64
2022/08/01 11:03:37;;;;;;;2.55;2.10;;;;;;;31.09;39.80;100264.81;5072829;28;20044;-64
2022/08/01 11:06:03;;;;;;;2.03;1.83;;;;;;;30.61;41.81;100268.00;5072628;28;20089;-65
2022/08/01 11:08:30;;;;;;;2.53;1.50;;;;;;;31.13;40.62;100267.75;5072584;28;20072;-64
2022/08/01 11:11:03;;;;;;;3.22;1.77;;;;;;;31.29;41.48;100271.81;5072227;28;20469;-64
2022/08/01 11:13:57;;;;;;;2.53;1.70;;;;;;;31.44;39.79;100268.72;5072803;28;20452;-65
2022/08/01 11:16:31;;;;;;;1.90;1.70;;;;;;;31.75;39.84;100276.19;5072194;28;20672;-64
2022/08/01 11:18:56;;;;;;;4.63;2.40;;;;;;;31.70;39.35;100268.09;5072258;28;20071;-64
2022/08/01 11:21:26;;;;;;;6.68;3.40;;;;;;;31.05;38.89;100256.38;5072264;28;20103;-65
2022/08/01 11:23:53;;;;;;;4.60;3.22;;;;;;;31.08;39.96;100261.25;5072245;28;20043;-64
2022/08/01 11:26:18;;;;;;;;;;;;;;;31.32;40.57;100257.44;5072594;28;20106;-64
2022/08/01 11:29:05;;;;;;;2.40;1.80;;;;;;;31.54;39.11;100254.69;5072115;28;19951;-64
2022/08/01 11:31:32;;;;;;;4.13;2.25;;;;;;;31.20;40.30;100257.13;5071365;28;20040;-64
2022/08/01 11:33:58;;;;;;;3.55;2.13;;;;;;;30.48;38.64;100255.91;5072171;28;20048;-64
2022/08/01 11:36:24;;;;;;;2.72;1.95;;;;;;;30.80;39.82;100259.69;5072010;28;20485;-64
2022/08/01 11:39:11;;;;;;;2.47;2.00;;;;;;;30.91;39.93;100252.00;5072076;28;20039;-63
2022/08/01 11:41:37;;;;;;;2.47;1.80;;;;;;;30.77;40.20;100249.28;5072515;28;20060;-64
2022/08/01 11:44:13;;;;;;;1.73;1.52;;;;;;;30.66;40.00;100237.69;5072094;28;20028;-64
2022/08/01 11:46:48;;;;;;;1.70;1.55;;;;;;;31.13;41.07;100245.75;5071971;28;20485;-64
2022/08/01 11:49:39;;;;;;;3.63;1.67;;;;;;;31.12;40.15;100241.38;5070563;28;20074;-64
2022/08/01 11:52:26;;;;;;;1.50;1.40;;;;;;;31.08;39.66;100238.44;5071721;28;20079;-63
2022/08/01 11:54:57;;;;;;;1.50;1.40;;;;;;;32.20;39.53;100232.06;5071872;28;20032;-64
2022/08/01 11:57:34;;;;;;;3.13;1.40;;;;;;;32.45;37.89;100242.41;5071827;28;20036;-59
2022/08/01 12:00:11;;;;;;;2.08;1.58;;;;;;;33.03;37.61;100230.22;5071655;28;20094;-59
2022/08/01 12:02:39;;;;;;;1.85;1.23;;;;;;;33.70;35.67;100231.66;5071614;28;20379;-61
2022/08/01 12:05:09;;;;;;;1.80;1.37;;;;;;;34.02;35.62;100233.06;5071693;28;20055;-61
2022/08/01 12:07:36;;;;;;;1.60;1.30;;;;;;;34.77;33.88;100223.13;5071871;28;20478;-55
2022/08/01 12:10:16;;;;;;;3.72;1.40;;;;;;;34.68;34.10;100221.53;5071451;28;20025;-59
2022/08/01 12:12:46;;;;;;;2.30;1.70;;;;;;;35.64;32.32;100227.97;5071660;28;20036;-60
2022/08/01 12:15:13;;;;;;;2.08;1.88;;;;;;;35.57;30.87;100220.19;5071580;28;20075;-61
2022/08/01 12:17:41;;;;;;;2.13;1.60;;;;;;;35.88;30.77;100216.94;5071723;28;20469;-58
2022/08/01 12:20:12;;;;;;;1.83;1.40;;;;;;;35.95;30.98;100218.38;5071298;28;20043;-60
2022/08/01 12:22:37;;;;;;;2.05;1.35;;;;;;;35.46;31.60;100223.75;5071558;28;20094;-62
2022/08/01 12:25:06;;;;;;;3.35;1.38;;;;;;;35.17;32.17;100211.59;5071389;28;20036;-62
2022/08/01 12:27:33;;;;;;;1.60;1.50;;;;;;;35.55;31.44;100216.16;5070032;28;20033;-61
2022/08/01 12:29:59;;;;;;;1.50;1.30;;;;;;;35.76;30.72;100218.88;5071249;28;20037;-61
2022/08/01 12:32:35;;;;;;;2.22;1.25;;;;;;;36.12;30.04;100207.84;5071375;28;20485;-61
2022/08/01 12:35:02;;;;;;;1.70;1.15;;;;;;;35.88;30.41;100214.16;5071437;28;20051;-60
2022/08/01 12:37:27;;;;;;;2.50;1.40;;;;;;;35.72;30.87;100215.97;5071331;28;20146;-62
2022/08/01 12:39:53;;;;;;;3.03;1.30;;;;;;;34.83;31.88;100214.63;5070979;28;20127;-62
2022/08/01 12:42:19;;;;;;;1.40;1.30;;;;;;;34.40;32.99;100210.13;5071492;28;20032;-62
2022/08/01 12:44:48;;;;;;;1.83;1.38;;;;;;;34.19;33.36;100205.38;5075475;28;20040;-60
2022/08/01 12:47:15;;;;;;;1.38;1.13;;;;;;;34.30;33.11;100205.81;5075244;28;20028;-61
2022/08/01 12:49:43;;;;;;;1.40;1.25;;;;;;;34.77;32.98;100212.06;5075165;28;20399;-61
2022/08/01 12:52:09;;;;;;;1.05;0.95;;;;;;;35.12;31.87;100206.28;5075254;28;20040;-59
2022/08/01 12:55:00;;;;;;;2.08;1.20;;;;;;;35.71;30.37;100214.34;5075288;28;20500;-61
2022/08/01 12:57:26;;;;;;;1.52;1.35;;;;;;;35.61;30.78;100204.53;5075192;28;20040;-62
2022/08/01 13:00:13;;;;;;;3.07;1.30;;;;;;;36.56;30.97;100204.53;5074894;28;20330;-62
2022/08/01 13:02:40;;;;;;;1.30;1.20;;;;;;;36.00;30.07;100205.09;5075103;28;20209;-59
2022/08/01 13:05:06;;;;;;;1.40;1.15;;;;;;;36.44;29.70;100210.06;5074847;28;20067;-61
2022/08/01 13:07:58;;;;;;;4.95;1.50;;;;;;;35.83;30.66;100200.53;5074871;28;20401;-60
2022/08/01 13:10:28;;;;;;;1.63;1.52;;;;;;;34.93;31.39;100203.97;5071576;28;20051;-59
2022/08/01 13:12:56;;;;;;;1.67;1.00;;;;;;;34.99;31.35;100210.13;5074780;28;20028;-60
2022/08/01 13:15:23;;;;;;;2.13;1.00;;;;;;;34.26;31.14;100202.91;5074595;28;20512;-60
2022/08/01 13:17:48;;;;;;;1.98;1.05;;;;;;;33.54;31.11;100197.44;5074629;28;20047;-57
2022/08/01 13:20:33;;;;;;;3.77;1.13;;;;;;;33.22;31.14;100194.03;5074362;28;20070;-62
2022/08/01 13:23:20;;;;;;;1.75;1.20;;;;;;;32.84;33.80;100197.41;5074709;28;20074;-61
2022/08/01 13:25:51;;;;;;;2.50;1.30;;;;;;;32.85;34.85;100192.69;5074458;28;20035;-61
2022/08/01 13:28:23;;;;;;;2.13;1.10;;;;;;;33.57;34.74;100197.56;5074574;28;20044;-58
2022/08/01 13:31:06;;;;;;;1.00;0.90;;;;;;;33.56;32.93;100197.91;5074054;28;20048;-61
2022/08/01 13:33:46;;;;;;;1.67;1.10;;;;;;;34.10;33.49;100190.75;5074424;28;20421;-60
2022/08/01 13:36:13;;;;;;;2.30;1.00;;;;;;;34.43;32.45;100190.97;5073201;28;20115;-58
2022/08/01 13:41:23;;;;;;;3.22;1.15;;;;;;;33.27;32.50;100182.84;5074233;28;20029;-58
2022/08/01 13:43:49;;;;;;;1.10;1.00;;;;;;;32.79;33.46;100177.44;5074476;28;20039;-61
2022/08/01 13:46:14;;;;;;;1.63;0.90;;;;;;;32.55;34.06;100195.28;5072859;28;20165;-60
2022/08/01 13:48:40;;;;;;;1.03;0.83;;;;;;;32.54;34.24;100190.91;5074154;28;20040;-59
2022/08/01 13:51:05;;;;;;;1.23;1.00;;;;;;;32.32;35.53;100194.53;5073934;28;20055;-56
2022/08/01 13:53:31;;;;;;;1.13;0.73;;;;;;;32.43;34.02;100188.75;5073768;28;20040;-63
2022/08/01 13:55:56;;;;;;;2.57;0.93;;;;;;;32.16;34.81;100190.59;5074030;28;20086;-64
2022/08/01 13:58:22;;;;;;;1.43;1.00;;;;;;;32.31;35.33;100192.09;5074153;28;20520;-63
2022/08/01 14:00:48;;;;;;;1.40;0.90;;;;;;;31.70;35.82;100193.75;5073717;28;20040;-63
2022/08/01 14:03:14;;;;;;;0.90;0.90;;;;;;;31.58;36.61;100189.63;5073936;28;20059;-64
2022/08/01 14:05:39;;;;;;;0.90;0.70;;;;;;;31.68;35.99;100184.97;5073852;28;20048;-63
2022/08/01 14:08:05;;;;;;;1.23;1.00;;;;;;;31.48;35.12;100181.63;5073836;28;20076;-63
2022/08/01 14:10:31;;;;;;;1.63;0.93;;;;;;;31.35;36.53;100185.25;5073570;28;20033;-63
2022/08/01 14:12:57;;;;;;;2.57;1.63;;;;;;;31.22;35.84;100177.84;5073738;28;20448;-63
2022/08/01 14:15:23;;;;;;;1.10;1.00;;;;;;;31.13;36.29;100171.50;5073601;28;20047;-63
2022/08/01 14:17:49;;;;;;;1.37;1.27;;;;;;;31.07;36.23;100171.59;5073532;28;20392;-64
2022/08/01 14:20:14;;;;;;;2.78;1.40;;;;;;;31.06;36.08;100167.22;5073389;28;20040;-63
2022/08/01 14:22:40;;;;;;;4.97;3.67;;;;;;;31.32;36.07;100177.66;5073580;28;20037;-63
2022/08/01 14:25:06;;;;;;;1.42;1.10;;;;;;;31.50;36.18;100182.16;5073521;28;20071;-63
2022/08/01 14:27:35;;;;;;;2.90;2.53;;;;;;;31.48;36.21;100172.56;5073405;28;20048;-63
2022/08/01 14:30:02;;;;;;;3.22;2.10;;;;;;;31.57;35.38;100185.25;5073085;28;20132;-63
2022/08/01 14:32:28;;;;;;;2.67;1.95;;;;;;;31.48;36.11;100184.38;5073409;28;20043;-63
2022/08/01 14:34:53;;;;;;;2.47;1.83;;;;;;;31.52;36.12;100184.56;5073276;28;20397;-63
2022/08/01 14:37:19;;;;;;;1.88;1.35;;;;;;;31.30;36.53;100190.91;5073162;28;20040;-63
2022/08/01 14:39:44;;;;;;;1.60;1.00;;;;;;;31.10;37.27;100183.91;5073004;28;20493;-63
2022/08/01 14:42:09;;;;;;;1.67;1.38;;;;;;;31.07;37.07;100188.09;5073225;28;20038;-63
2022/08/01 14:44:35;;;;;;;0.82;0.82;;;;;;;31.11;36.42;100177.31;5073146;28;20138;-63
2022/08/01 14:47:00;;;;;;;1.65;1.02;;;;;;;31.00;37.45;100179.47;5073076;28;20040;-63
2022/08/01 14:49:25;;;;;;;1.73;1.27;;;;;;;30.98;36.53;100184.47;5072787;28;20056;-63
2022/08/01 14:51:51;;;;;;;1.10;0.90;;;;;;;30.89;37.43;100172.59;5063407;28;20059;-63
2022/08/01 14:54:16;;;;;;;0.95;0.88;;;;;;;30.74;36.54;100170.19;5066727;28;20115;-63
2022/08/01 14:56:42;;;;;;;1.67;1.00;;;;;;;30.23;37.02;100169.31;5072951;28;20040;-63
2022/08/01 14:59:07;;;;;;;2.25;1.00;;;;;;;30.29;37.91;100177.44;5072581;28;20044;-63
2022/08/01 15:01:33;;;;;;;1.88;1.20;;;;;;;30.21;38.19;100179.00;5072771;28;20029;-63
2022/08/01 15:03:58;;;;;;;0.80;0.80;;;;;;;30.04;38.14;100182.28;5072713;28;20404;-63
2022/08/01 15:06:24;;;;;;;0.90;0.82;;;;;;;30.14;38.06;100173.91;5072009;28;20032;-63
2022/08/01 15:08:49;;;;;;;2.30;1.20;;;;;;;30.03;39.12;100180.66;5072504;28;20068;-63
2022/08/01 15:11:15;;;;;;;2.15;1.05;;;;;;;29.91;39.33;100183.91;5072329;28;20121;-63
2022/08/01 15:13:40;;;;;;;1.67;1.05;;;;;;;29.82;39.28;100180.25;5072495;28;20414;-63
2022/08/01 15:16:05;;;;;;;1.20;0.85;;;;;;;29.98;39.30;100183.50;5072501;28;20404;-63
2022/08/01 15:18:31;;;;;;;2.03;1.00;;;;;;;29.79;39.62;100185.53;5072518;28;20696;-64
2022/08/01 15:20:57;;;;;;;2.38;0.95;;;;;;;29.72;40.06;100188.66;5072280;28;20048;-63
2022/08/01 15:23:22;;;;;;;2.38;1.00;;;;;;;29.60;40.11;100180.91;5072458;28;20401;-64
2022/08/01 15:25:48;;;;;;;2.35;0.70;;;;;;;29.71;40.11;100184.28;5072364;28;20059;-64
2022/08/01 15:28:13;;;;;;;2.63;1.10;;;;;;;29.64;40.84;100186.63;5072393;28;20036;-64
2022/08/01 15:30:39;;;;;;;1.95;1.00;;;;;;;29.50;40.20;100183.00;5071819;28;20101;-63
2022/08/01 15:33:05;;;;;;;3.90;1.02;;;;;;;29.58;40.78;100187.81;5072080;28;20426;-64
2022/08/01 15:35:31;;;;;;;1.83;0.90;;;;;;;29.65;40.91;100185.50;5071842;28;20040;-64
2022/08/01 15:37:56;;;;;;;4.03;1.08;;;;;;;29.64;40.31;100186.63;5072110;28;20044;-63
2022/08/01 15:40:22;;;;;;;1.83;0.85;;;;;;;29.63;41.04;100182.25;5072030;28;20123;-64
2022/08/01 15:42:47;;;;;;;2.83;0.90;;;;;;;29.81;40.92;100186.06;5072327;28;20036;-63
2022/08/01 15:45:17;;;;;;;1.10;1.00;;;;;;;29.68;40.47;100182.16;5072057;28;20539;-64
2022/08/01 15:47:43;;;;;;;2.25;0.90;;;;;;;29.69;40.54;100181.03;5072121;28;20040;-64
2022/08/01 15:50:09;;;;;;;1.52;1.00;;;;;;;29.44;40.69;100174.84;5071631;28;20025;-64
2022/08/01 15:52:34;;;;;;;2.97;1.10;;;;;;;29.48;41.41;100186.06;5071759;28;20047;-63
2022/08/01 15:54:59;;;;;;;2.35;1.02;;;;;;;29.24;42.19;100188.09;5071676;28;20063;-52
2022/08/01 15:57:25;;;;;;;5.30;0.80;;;;;;;29.11;41.35;100185.00;5072191;28;20485;-49